sensor_id;sensor_type;location;lat;lon;timestamp;pressure;altitude;pressure_sealevel;temperature;humidity
37206;BME280;23099;42.636;23.198;2023-02-02T00:00:46;92023.09;;;2.11;65.91
37206;BME280;23099;42.636;23.198;2023-02-02T00:03:12;92024.59;;;2.03;63.52
37206;BME280;23099;42.636;23.198;2023-02-02T00:05:44;92028.31;;;2.02;64.44
37206;BME280;23099;42.636;23.198;2023-02-02T00:08:10;92032.97;;;2.05;64.17
37206;BME280;23099;42.636;23.198;2023-02-02T00:10:37;92029.88;;;2.03;64.88
37206;BME280;23099;42.636;23.198;2023-02-02T00:13:04;92030.34;;;2.05;63.82
37206;BME280;23099;42.636;23.198;2023-02-02T00:15:32;92027.56;;;2.02;64.25
37206;BME280;23099;42.636;23.198;2023-02-02T00:17:59;92024.47;;;2.00;64.97
37206;BME280;23099;42.636;23.198;2023-02-02T00:20:25;92026.78;;;2.01;65.94
37206;BME280;23099;42.636;23.198;2023-02-02T00:22:52;92031.72;;;2.03;64.51
37206;BME280;23099;42.636;23.198;2023-02-02T00:25:18;92032.22;;;2.05;65.50
37206;BME280;23099;42.636;23.198;2023-02-02T00:27:45;92032.97;;;2.05;64.58
37206;BME280;23099;42.636;23.198;2023-02-02T00:30:12;92037.00;;;2.03;65.50
37206;BME280;23099;42.636;23.198;2023-02-02T00:32:41;92036.69;;;2.04;65.61
37206;BME280;23099;42.636;23.198;2023-02-02T00:35:08;92051.44;;;2.05;65.69
37206;BME280;23099;42.636;23.198;2023-02-02T00:37:35;92042.75;;;2.05;65.12
37206;BME280;23099;42.636;23.198;2023-02-02T00:40:01;92049.28;;;2.07;66.70
37206;BME280;23099;42.636;23.198;2023-02-02T00:42:28;92043.25;;;2.16;67.14
37206;BME280;23099;42.636;23.198;2023-02-02T00:44:55;92040.28;;;2.17;66.54
37206;BME280;23099;42.636;23.198;2023-02-02T00:47:39;92030.53;;;2.18;65.84
37206;BME280;23099;42.636;23.198;2023-02-02T00:50:08;92031.91;;;2.06;65.66
37206;BME280;23099;42.636;23.198;2023-02-02T00:52:35;92032.38;;;2.00;67.10
37206;BME280;23099;42.636;23.198;2023-02-02T00:55:01;92032.19;;;1.96;67.35
37206;BME280;23099;42.636;23.198;2023-02-02T00:57:28;92027.84;;;1.92;68.79
37206;BME280;23099;42.636;23.198;2023-02-02T00:59:55;92028.13;;;1.82;66.38
37206;BME280;23099;42.636;23.198;2023-02-02T01:02:21;92028.91;;;1.82;68.68
37206;BME280;23099;42.636;23.198;2023-02-02T01:04:48;92040.34;;;1.77;69.70
37206;BME280;23099;42.636;23.198;2023-02-02T01:07:16;92042.66;;;1.70;66.97
37206;BME280;23099;42.636;23.198;2023-02-02T01:09:43;92047.16;;;1.70;68.79
37206;BME280;23099;42.636;23.198;2023-02-02T01:12:10;92038.59;;;1.64;68.65
37206;BME280;23099;42.636;23.198;2023-02-02T01:14:36;92033.78;;;1.58;68.40
37206;BME280;23099;42.636;23.198;2023-02-02T01:17:03;92032.03;;;1.53;68.42
37206;BME280;23099;42.636;23.198;2023-02-02T01:19:30;92028.28;;;1.46;69.54
37206;BME280;23099;42.636;23.198;2023-02-02T01:21:57;92026.69;;;1.36;70.23
37206;BME280;23099;42.636;23.198;2023-02-02T01:24:25;92024.19;;;1.31;70.17
37206;BME280;23099;42.636;23.198;2023-02-02T01:26:52;92025.09;;;1.26;70.23
37206;BME280;23099;42.636;23.198;2023-02-02T01:29:18;92021.09;;;1.29;71.25
37206;BME280;23099;42.636;23.198;2023-02-02T01:31:46;92017.69;;;1.28;71.52
37206;BME280;23099;42.636;23.198;2023-02-02T01:34:12;92011.78;;;1.23;71.96
37206;BME280;23099;42.636;23.198;2023-02-02T01:36:39;92028.34;;;1.23;72.87
37206;BME280;23099;42.636;23.198;2023-02-02T01:39:06;92038.13;;;1.31;72.29
37206;BME280;23099;42.636;23.198;2023-02-02T01:41:35;92026.50;;;1.24;71.90
37206;BME280;23099;42.636;23.198;2023-02-02T01:44:03;92020.72;;;1.13;72.44
37206;BME280;23099;42.636;23.198;2023-02-02T01:46:31;92020.50;;;1.01;73.59
37206;BME280;23099;42.636;23.198;2023-02-02T01:49:03;92013.78;;;0.95;74.20
37206;BME280;23099;42.636;23.198;2023-02-02T01:51:35;92019.63;;;0.92;73.34
37206;BME280;23099;42.636;23.198;2023-02-02T01:54:05;92007.56;;;0.91;74.57
37206;BME280;23099;42.636;23.198;2023-02-02T01:56:38;92014.19;;;0.88;74.39
37206;BME280;23099;42.636;23.198;2023-02-02T01:59:06;92005.84;;;0.86;74.61
37206;BME280;23099;42.636;23.198;2023-02-02T02:01:33;92001.00;;;0.80;74.59
37206;BME280;23099;42.636;23.198;2023-02-02T02:04:00;91996.63;;;0.75;75.14
37206;BME280;23099;42.636;23.198;2023-02-02T02:06:27;91998.63;;;0.69;75.73
37206;BME280;23099;42.636;23.198;2023-02-02T02:08:56;91998.97;;;0.54;77.14
37206;BME280;23099;42.636;23.198;2023-02-02T02:11:24;91994.59;;;0.50;76.90
37206;BME280;23099;42.636;23.198;2023-02-02T02:13:54;92002.59;;;0.45;78.08
37206;BME280;23099;42.636;23.198;2023-02-02T02:16:48;91999.41;;;0.34;79.12
37206;BME280;23099;42.636;23.198;2023-02-02T02:19:37;92003.41;;;0.31;79.17
37206;BME280;23099;42.636;23.198;2023-02-02T02:22:54;91996.31;;;0.32;79.22
37206;BME280;23099;42.636;23.198;2023-02-02T02:26:00;91999.13;;;0.35;80.11
37206;BME280;23099;42.636;23.198;2023-02-02T02:31:56;91997.50;;;0.26;80.16
37206;BME280;23099;42.636;23.198;2023-02-02T02:34:37;91998.41;;;0.21;79.59
37206;BME280;23099;42.636;23.198;2023-02-02T02:37:10;91995.97;;;0.25;80.53
37206;BME280;23099;42.636;23.198;2023-02-02T02:39:46;91995.38;;;0.28;79.72
37206;BME280;23099;42.636;23.198;2023-02-02T02:42:20;91991.78;;;0.24;80.59
37206;BME280;23099;42.636;23.198;2023-02-02T02:44:49;92002.88;;;0.21;80.45
37206;BME280;23099;42.636;23.198;2023-02-02T02:47:18;91996.84;;;0.20;81.02
37206;BME280;23099;42.636;23.198;2023-02-02T02:49:47;91996.88;;;0.07;81.49
37206;BME280;23099;42.636;23.198;2023-02-02T02:52:14;91996.81;;;-0.02;81.57
37206;BME280;23099;42.636;23.198;2023-02-02T02:54:43;91997.19;;;-0.09;82.60
37206;BME280;23099;42.636;23.198;2023-02-02T02:57:21;91986.63;;;-0.17;82.46
37206;BME280;23099;42.636;23.198;2023-02-02T02:59:57;91988.28;;;-0.21;82.41
37206;BME280;23099;42.636;23.198;2023-02-02T03:02:35;91995.16;;;-0.25;83.44
37206;BME280;23099;42.636;23.198;2023-02-02T03:05:16;91993.44;;;-0.30;83.36
37206;BME280;23099;42.636;23.198;2023-02-02T03:07:52;91994.09;;;-0.24;83.12
37206;BME280;23099;42.636;23.198;2023-02-02T03:10:24;91985.44;;;-0.25;83.94
37206;BME280;23099;42.636;23.198;2023-02-02T03:12:54;91984.38;;;-0.24;83.42
37206;BME280;23099;42.636;23.198;2023-02-02T03:15:21;91990.69;;;-0.25;82.88
37206;BME280;23099;42.636;23.198;2023-02-02T03:17:50;91989.44;;;-0.27;82.81
37206;BME280;23099;42.636;23.198;2023-02-02T03:20:19;91991.88;;;-0.31;83.02
37206;BME280;23099;42.636;23.198;2023-02-02T03:22:46;91984.97;;;-0.27;83.71
37206;BME280;23099;42.636;23.198;2023-02-02T03:25:12;91988.47;;;-0.31;83.76
37206;BME280;23099;42.636;23.198;2023-02-02T03:27:40;91986.94;;;-0.46;84.31
37206;BME280;23099;42.636;23.198;2023-02-02T03:30:12;91995.59;;;-0.46;84.27
37206;BME280;23099;42.636;23.198;2023-02-02T03:32:39;91990.22;;;-0.41;83.89
37206;BME280;23099;42.636;23.198;2023-02-02T03:35:08;91992.06;;;-0.41;84.08
37206;BME280;23099;42.636;23.198;2023-02-02T03:37:34;91989.44;;;-0.41;84.61
37206;BME280;23099;42.636;23.198;2023-02-02T03:40:01;92001.00;;;-0.42;84.63
37206;BME280;23099;42.636;23.198;2023-02-02T03:42:28;92001.78;;;-0.42;84.62
37206;BME280;23099;42.636;23.198;2023-02-02T03:44:55;91991.00;;;-0.40;84.46
37206;BME280;23099;42.636;23.198;2023-02-02T03:47:21;91994.81;;;-0.32;83.75
37206;BME280;23099;42.636;23.198;2023-02-02T03:49:48;91989.75;;;-0.29;83.60
37206;BME280;23099;42.636;23.198;2023-02-02T03:52:16;91995.09;;;-0.20;83.11
37206;BME280;23099;42.636;23.198;2023-02-02T03:54:43;91995.44;;;-0.13;82.59
37206;BME280;23099;42.636;23.198;2023-02-02T03:57:09;91992.81;;;-0.13;82.76
37206;BME280;23099;42.636;23.198;2023-02-02T03:59:36;92002.75;;;-0.10;82.45
37206;BME280;23099;42.636;23.198;2023-02-02T04:02:03;91980.00;;;-0.15;82.20
37206;BME280;23099;42.636;23.198;2023-02-02T04:04:29;91991.66;;;-0.07;83.30
37206;BME280;23099;42.636;23.198;2023-02-02T04:06:56;91996.81;;;-0.02;83.19
37206;BME280;23099;42.636;23.198;2023-02-02T04:09:24;92003.19;;;0.06;82.55
37206;BME280;23099;42.636;23.198;2023-02-02T04:11:51;91993.38;;;0.11;82.44
37206;BME280;23099;42.636;23.198;2023-02-02T04:14:18;91995.22;;;0.11;81.92
37206;BME280;23099;42.636;23.198;2023-02-02T04:16:45;91999.88;;;0.14;82.18
37206;BME280;23099;42.636;23.198;2023-02-02T04:19:12;91991.38;;;0.17;81.08
37206;BME280;23099;42.636;23.198;2023-02-02T04:21:38;91995.75;;;0.21;81.89
37206;BME280;23099;42.636;23.198;2023-02-02T04:24:06;91993.81;;;0.27;81.95
37206;BME280;23099;42.636;23.198;2023-02-02T04:26:34;91997.09;;;0.32;81.17
37206;BME280;23099;42.636;23.198;2023-02-02T04:29:01;91993.69;;;0.32;82.01
37206;BME280;23099;42.636;23.198;2023-02-02T04:31:27;91997.88;;;0.33;81.17
37206;BME280;23099;42.636;23.198;2023-02-02T04:33:54;91995.63;;;0.40;81.42
37206;BME280;23099;42.636;23.198;2023-02-02T04:36:21;91990.56;;;0.30;80.74
37206;BME280;23099;42.636;23.198;2023-02-02T04:38:48;91991.25;;;0.35;80.16
37206;BME280;23099;42.636;23.198;2023-02-02T04:41:15;91994.16;;;0.34;79.89
37206;BME280;23099;42.636;23.198;2023-02-02T04:43:44;91991.34;;;0.30;80.45
37206;BME280;23099;42.636;23.198;2023-02-02T04:46:12;91997.31;;;0.22;80.16
37206;BME280;23099;42.636;23.198;2023-02-02T04:48:39;91999.75;;;0.19;79.95
37206;BME280;23099;42.636;23.198;2023-02-02T04:51:08;92014.25;;;0.16;80.30
37206;BME280;23099;42.636;23.198;2023-02-02T04:53:35;92006.31;;;0.08;80.68
37206;BME280;23099;42.636;23.198;2023-02-02T04:56:06;92021.09;;;0.04;81.40
37206;BME280;23099;42.636;23.198;2023-02-02T04:58:33;92016.44;;;0.00;80.99
37206;BME280;23099;42.636;23.198;2023-02-02T05:01:07;92018.59;;;-0.02;80.36
37206;BME280;23099;42.636;23.198;2023-02-02T05:03:34;92017.53;;;-0.01;80.93
37206;BME280;23099;42.636;23.198;2023-02-02T05:06:01;92012.47;;;-0.11;81.49
37206;BME280;23099;42.636;23.198;2023-02-02T05:08:28;92009.66;;;-0.14;81.36
37206;BME280;23099;42.636;23.198;2023-02-02T05:10:54;92026.78;;;-0.17;80.86
37206;BME280;23099;42.636;23.198;2023-02-02T05:13:21;92013.75;;;-0.22;81.35
37206;BME280;23099;42.636;23.198;2023-02-02T05:15:48;92028.25;;;-0.24;81.20
37206;BME280;23099;42.636;23.198;2023-02-02T05:18:16;92031.00;;;-0.29;80.67
37206;BME280;23099;42.636;23.198;2023-02-02T05:20:43;92030.38;;;-0.26;81.23
37206;BME280;23099;42.636;23.198;2023-02-02T05:23:09;92022.00;;;-0.28;80.74
37206;BME280;23099;42.636;23.198;2023-02-02T05:25:36;92011.81;;;-0.30;81.26
37206;BME280;23099;42.636;23.198;2023-02-02T05:28:03;92015.22;;;-0.29;80.62
37206;BME280;23099;42.636;23.198;2023-02-02T05:30:29;92015.22;;;-0.29;80.62
37206;BME280;23099;42.636;23.198;2023-02-02T05:32:56;92017.09;;;-0.30;80.05
37206;BME280;23099;42.636;23.198;2023-02-02T05:35:24;92017.25;;;-0.26;79.74
37206;BME280;23099;42.636;23.198;2023-02-02T05:37:51;92021.72;;;-0.27;79.20
37206;BME280;23099;42.636;23.198;2023-02-02T05:40:17;92018.16;;;-0.31;79.20
37206;BME280;23099;42.636;23.198;2023-02-02T05:42:46;92028.44;;;-0.34;78.54
37206;BME280;23099;42.636;23.198;2023-02-02T05:45:13;92021.25;;;-0.29;77.53
37206;BME280;23099;42.636;23.198;2023-02-02T05:47:40;92025.91;;;-0.26;77.91
37206;BME280;23099;42.636;23.198;2023-02-02T05:50:07;92024.63;;;-0.28;77.75
37206;BME280;23099;42.636;23.198;2023-02-02T05:52:36;92023.56;;;-0.27;77.50
37206;BME280;23099;42.636;23.198;2023-02-02T05:55:05;92023.28;;;-0.26;77.92
37206;BME280;23099;42.636;23.198;2023-02-02T05:57:32;92016.09;;;-0.20;76.82
37206;BME280;23099;42.636;23.198;2023-02-02T05:59:58;92025.91;;;-0.12;75.89
37206;BME280;23099;42.636;23.198;2023-02-02T06:02:25;92036.88;;;-0.10;77.45
37206;BME280;23099;42.636;23.198;2023-02-02T06:04:52;92041.56;;;-0.07;77.12
37206;BME280;23099;42.636;23.198;2023-02-02T06:07:18;92045.94;;;-0.03;76.16
37206;BME280;23099;42.636;23.198;2023-02-02T06:09:46;92036.59;;;0.05;76.14
37206;BME280;23099;42.636;23.198;2023-02-02T06:12:13;92031.22;;;0.10;75.96
37206;BME280;23099;42.636;23.198;2023-02-02T06:14:40;92038.53;;;0.13;75.26
37206;BME280;23099;42.636;23.198;2023-02-02T06:17:06;92031.41;;;0.14;76.06
37206;BME280;23099;42.636;23.198;2023-02-02T06:19:33;92040.47;;;0.08;76.53
37206;BME280;23099;42.636;23.198;2023-02-02T06:22:00;92042.63;;;0.06;76.07
37206;BME280;23099;42.636;23.198;2023-02-02T06:24:26;92051.66;;;0.13;75.98
37206;BME280;23099;42.636;23.198;2023-02-02T06:26:54;92051.84;;;0.17;76.11
37206;BME280;23099;42.636;23.198;2023-02-02T06:29:21;92044.81;;;0.26;74.88
37206;BME280;23099;42.636;23.198;2023-02-02T06:31:48;92047.47;;;0.48;73.04
37206;BME280;23099;42.636;23.198;2023-02-02T06:34:14;92051.53;;;0.68;71.79
37206;BME280;23099;42.636;23.198;2023-02-02T06:36:41;92062.09;;;0.77;73.27
37206;BME280;23099;42.636;23.198;2023-02-02T06:39:08;92058.88;;;0.80;72.24
37206;BME280;23099;42.636;23.198;2023-02-02T06:41:35;92059.88;;;0.92;72.33
37206;BME280;23099;42.636;23.198;2023-02-02T06:44:03;92048.81;;;1.04;70.23
37206;BME280;23099;42.636;23.198;2023-02-02T06:46:30;92059.16;;;1.23;69.97
37206;BME280;23099;42.636;23.198;2023-02-02T06:48:56;92060.59;;;1.29;69.66
37206;BME280;23099;42.636;23.198;2023-02-02T06:51:23;92067.41;;;1.30;70.09
37206;BME280;23099;42.636;23.198;2023-02-02T06:53:49;92067.56;;;1.33;70.56
37206;BME280;23099;42.636;23.198;2023-02-02T06:56:16;92055.97;;;1.34;70.91
37206;BME280;23099;42.636;23.198;2023-02-02T06:58:43;92065.13;;;1.37;70.78
37206;BME280;23099;42.636;23.198;2023-02-02T07:01:12;92063.09;;;1.34;71.02
37206;BME280;23099;42.636;23.198;2023-02-02T07:03:39;92071.81;;;1.43;69.81
37206;BME280;23099;42.636;23.198;2023-02-02T07:06:14;92062.41;;;1.51;70.22
37206;BME280;23099;42.636;23.198;2023-02-02T07:08:43;92065.22;;;1.54;71.39
37206;BME280;23099;42.636;23.198;2023-02-02T07:11:10;92067.41;;;1.61;70.76
37206;BME280;23099;42.636;23.198;2023-02-02T07:13:37;92065.59;;;1.70;70.88
37206;BME280;23099;42.636;23.198;2023-02-02T07:16:04;92053.69;;;1.72;70.67
37206;BME280;23099;42.636;23.198;2023-02-02T07:18:32;92064.56;;;1.88;67.84
37206;BME280;23099;42.636;23.198;2023-02-02T07:21:01;92065.34;;;1.89;68.56
37206;BME280;23099;42.636;23.198;2023-02-02T07:23:28;92077.78;;;1.97;67.19
37206;BME280;23099;42.636;23.198;2023-02-02T07:26:00;92074.25;;;2.01;67.66
37206;BME280;23099;42.636;23.198;2023-02-02T07:28:27;92061.38;;;2.08;68.18
37206;BME280;23099;42.636;23.198;2023-02-02T07:30:53;92069.16;;;2.22;67.73
37206;BME280;23099;42.636;23.198;2023-02-02T07:33:20;92047.75;;;2.15;64.96
37206;BME280;23099;42.636;23.198;2023-02-02T07:35:48;92067.16;;;2.28;66.96
37206;BME280;23099;42.636;23.198;2023-02-02T07:38:15;92067.00;;;2.33;65.46
37206;BME280;23099;42.636;23.198;2023-02-02T07:40:42;92065.78;;;2.39;66.45
37206;BME280;23099;42.636;23.198;2023-02-02T07:43:09;92063.94;;;2.39;65.03
37206;BME280;23099;42.636;23.198;2023-02-02T07:45:35;92060.38;;;2.53;62.19
37206;BME280;23099;42.636;23.198;2023-02-02T07:48:02;92048.13;;;2.57;64.42
37206;BME280;23099;42.636;23.198;2023-02-02T07:50:29;92049.97;;;2.65;65.42
37206;BME280;23099;42.636;23.198;2023-02-02T07:52:58;92039.44;;;2.65;63.87
37206;BME280;23099;42.636;23.198;2023-02-02T07:55:26;92040.50;;;2.64;62.66
37206;BME280;23099;42.636;23.198;2023-02-02T07:57:52;92042.25;;;2.60;63.84
37206;BME280;23099;42.636;23.198;2023-02-02T08:00:23;92039.28;;;2.53;63.75
37206;BME280;23099;42.636;23.198;2023-02-02T08:02:50;92029.94;;;2.46;63.46
37206;BME280;23099;42.636;23.198;2023-02-02T08:05:17;92039.91;;;2.67;65.57
37206;BME280;23099;42.636;23.198;2023-02-02T08:07:43;92033.81;;;3.09;63.85
37206;BME280;23099;42.636;23.198;2023-02-02T08:10:11;92035.34;;;3.28;61.58
37206;BME280;23099;42.636;23.198;2023-02-02T08:12:38;92032.09;;;3.31;61.67
37206;BME280;23099;42.636;23.198;2023-02-02T08:15:05;92024.31;;;3.26;61.41
37206;BME280;23099;42.636;23.198;2023-02-02T08:17:32;92029.44;;;3.22;62.25
37206;BME280;23099;42.636;23.198;2023-02-02T08:19:59;92023.41;;;3.04;63.17
37206;BME280;23099;42.636;23.198;2023-02-02T08:22:26;92025.59;;;2.94;62.85
37206;BME280;23099;42.636;23.198;2023-02-02T08:24:52;92033.84;;;3.01;62.60
37206;BME280;23099;42.636;23.198;2023-02-02T08:27:20;92022.94;;;3.11;64.02
37206;BME280;23099;42.636;23.198;2023-02-02T08:29:47;92027.69;;;3.43;62.22
37206;BME280;23099;42.636;23.198;2023-02-02T08:32:14;92017.97;;;3.65;61.42
37206;BME280;23099;42.636;23.198;2023-02-02T08:34:40;92015.09;;;3.87;61.42
37206;BME280;23099;42.636;23.198;2023-02-02T08:37:07;92018.22;;;3.89;60.41
37206;BME280;23099;42.636;23.198;2023-02-02T08:39:33;92010.13;;;3.85;60.65
37206;BME280;23099;42.636;23.198;2023-02-02T08:42:00;92010.91;;;3.86;59.69
37206;BME280;23099;42.636;23.198;2023-02-02T08:44:28;92002.22;;;3.77;60.33
37206;BME280;23099;42.636;23.198;2023-02-02T08:46:55;92008.75;;;3.79;61.83
37206;BME280;23099;42.636;23.198;2023-02-02T08:49:21;92007.94;;;3.87;61.17
37206;BME280;23099;42.636;23.198;2023-02-02T08:51:48;91998.00;;;3.84;61.11
37206;BME280;23099;42.636;23.198;2023-02-02T08:54:15;91997.25;;;4.05;60.49
37206;BME280;23099;42.636;23.198;2023-02-02T08:56:42;91993.00;;;4.42;61.45
37206;BME280;23099;42.636;23.198;2023-02-02T08:59:09;91996.34;;;4.51;59.33
37206;BME280;23099;42.636;23.198;2023-02-02T09:01:37;92003.69;;;4.24;59.25
37206;BME280;23099;42.636;23.198;2023-02-02T09:04:05;92003.00;;;4.07;60.51
37206;BME280;23099;42.636;23.198;2023-02-02T09:06:32;92000.97;;;4.33;60.08
37206;BME280;23099;42.636;23.198;2023-02-02T09:08:59;91995.72;;;4.54;59.55
37206;BME280;23099;42.636;23.198;2023-02-02T09:11:26;91997.06;;;4.81;58.04
37206;BME280;23099;42.636;23.198;2023-02-02T09:13:54;91995.31;;;4.85;57.61
37206;BME280;23099;42.636;23.198;2023-02-02T09:16:22;91986.16;;;4.61;58.15
37206;BME280;23099;42.636;23.198;2023-02-02T09:18:50;91990.47;;;4.66;59.88
37206;BME280;23099;42.636;23.198;2023-02-02T09:21:18;91988.28;;;4.89;57.45
37206;BME280;23099;42.636;23.198;2023-02-02T09:23:46;91976.53;;;5.11;57.53
37206;BME280;23099;42.636;23.198;2023-02-02T09:26:14;91979.34;;;5.26;56.84
37206;BME280;23099;42.636;23.198;2023-02-02T09:28:43;91980.81;;;5.48;56.15
37206;BME280;23099;42.636;23.198;2023-02-02T09:31:11;91972.50;;;5.38;55.00
37206;BME280;23099;42.636;23.198;2023-02-02T09:33:38;91968.44;;;5.52;56.72
37206;BME280;23099;42.636;23.198;2023-02-02T09:36:08;91966.59;;;5.65;54.05
37206;BME280;23099;42.636;23.198;2023-02-02T09:38:36;91963.28;;;5.68;54.27
37206;BME280;23099;42.636;23.198;2023-02-02T09:41:23;91968.91;;;5.79;54.37
37206;BME280;23099;42.636;23.198;2023-02-02T09:43:51;91971.56;;;5.66;52.80
37206;BME280;23099;42.636;23.198;2023-02-02T09:46:29;91952.78;;;5.59;54.44
37206;BME280;23099;42.636;23.198;2023-02-02T09:49:00;91950.47;;;5.70;54.07
37206;BME280;23099;42.636;23.198;2023-02-02T09:51:34;91951.47;;;5.78;52.46
37206;BME280;23099;42.636;23.198;2023-02-02T09:54:11;91935.59;;;5.90;55.14
37206;BME280;23099;42.636;23.198;2023-02-02T09:56:42;91933.69;;;6.15;53.32
37206;BME280;23099;42.636;23.198;2023-02-02T09:59:16;91928.56;;;6.22;53.05
37206;BME280;23099;42.636;23.198;2023-02-02T10:01:45;91945.50;;;6.29;52.50
37206;BME280;23099;42.636;23.198;2023-02-02T10:04:15;91934.75;;;6.38;53.54
37206;BME280;23099;42.636;23.198;2023-02-02T10:06:47;91932.00;;;6.22;51.77
37206;BME280;23099;42.636;23.198;2023-02-02T10:09:24;91929.81;;;6.12;52.22
37206;BME280;23099;42.636;23.198;2023-02-02T10:11:56;91925.16;;;5.85;53.51
37206;BME280;23099;42.636;23.198;2023-02-02T10:14:29;91921.50;;;5.53;56.06
37206;BME280;23099;42.636;23.198;2023-02-02T10:17:06;91923.56;;;5.23;54.94
37206;BME280;23099;42.636;23.198;2023-02-02T10:19:41;91930.41;;;4.79;56.96
37206;BME280;23099;42.636;23.198;2023-02-02T10:22:13;91918.88;;;4.62;56.96
37206;BME280;23099;42.636;23.198;2023-02-02T10:24:42;91908.25;;;4.83;58.08
37206;BME280;23099;42.636;23.198;2023-02-02T10:27:13;91910.91;;;5.28;58.30
37206;BME280;23099;42.636;23.198;2023-02-02T10:29:46;91924.88;;;5.05;55.73
37206;BME280;23099;42.636;23.198;2023-02-02T10:32:21;91915.47;;;5.07;57.27
37206;BME280;23099;42.636;23.198;2023-02-02T10:35:20;91915.31;;;5.37;55.46
37206;BME280;23099;42.636;23.198;2023-02-02T10:37:57;91905.94;;;5.51;55.91
37206;BME280;23099;42.636;23.198;2023-02-02T10:40:37;91902.97;;;5.53;57.36
37206;BME280;23099;42.636;23.198;2023-02-02T10:43:20;91891.16;;;5.99;55.55
37206;BME280;23099;42.636;23.198;2023-02-02T10:46:14;91879.44;;;5.76;53.94
37206;BME280;23099;42.636;23.198;2023-02-02T10:48:44;91892.47;;;5.81;54.04
37206;BME280;23099;42.636;23.198;2023-02-02T10:51:17;91878.00;;;5.66;54.65
37206;BME280;23099;42.636;23.198;2023-02-02T10:53:51;91870.06;;;5.90;54.70
37206;BME280;23099;42.636;23.198;2023-02-02T10:56:22;91860.78;;;6.24;53.17
37206;BME280;23099;42.636;23.198;2023-02-02T10:58:58;91850.72;;;6.58;52.44
37206;BME280;23099;42.636;23.198;2023-02-02T11:01:26;91850.56;;;6.66;52.50
37206;BME280;23099;42.636;23.198;2023-02-02T11:03:53;91849.28;;;6.60;50.78
37206;BME280;23099;42.636;23.198;2023-02-02T11:06:34;91859.19;;;6.48;51.56
37206;BME280;23099;42.636;23.198;2023-02-02T11:09:18;91849.44;;;6.12;50.86
37206;BME280;23099;42.636;23.198;2023-02-02T11:11:49;91833.44;;;5.84;51.55
37206;BME280;23099;42.636;23.198;2023-02-02T11:14:24;91838.84;;;6.39;52.77
37206;BME280;23099;42.636;23.198;2023-02-02T11:17:02;91834.44;;;6.87;50.51
37206;BME280;23099;42.636;23.198;2023-02-02T11:19:31;91831.84;;;6.47;49.99
37206;BME280;23099;42.636;23.198;2023-02-02T11:22:00;91833.16;;;6.25;51.73
37206;BME280;23099;42.636;23.198;2023-02-02T11:24:30;91824.91;;;6.15;50.09
37206;BME280;23099;42.636;23.198;2023-02-02T11:27:02;91819.16;;;6.41;53.05
37206;BME280;23099;42.636;23.198;2023-02-02T11:29:32;91828.44;;;6.19;53.09
37206;BME280;23099;42.636;23.198;2023-02-02T11:32:17;91823.34;;;6.14;53.07
37206;BME280;23099;42.636;23.198;2023-02-02T11:34:45;91807.94;;;6.31;51.14
37206;BME280;23099;42.636;23.198;2023-02-02T11:37:13;91813.31;;;6.35;50.50
37206;BME280;23099;42.636;23.198;2023-02-02T11:39:42;91799.63;;;6.33;50.47
37206;BME280;23099;42.636;23.198;2023-02-02T11:42:12;91809.13;;;6.34;50.73
37206;BME280;23099;42.636;23.198;2023-02-02T11:44:42;91809.16;;;6.50;51.58
37206;BME280;23099;42.636;23.198;2023-02-02T11:47:18;91821.06;;;6.56;51.37
37206;BME280;23099;42.636;23.198;2023-02-02T11:49:46;91825.13;;;6.37;51.38
37206;BME280;23099;42.636;23.198;2023-02-02T11:52:17;91816.00;;;6.23;51.57
37206;BME280;23099;42.636;23.198;2023-02-02T11:54:49;91805.34;;;6.07;52.11
37206;BME280;23099;42.636;23.198;2023-02-02T11:57:17;91819.09;;;5.85;53.28
37206;BME280;23099;42.636;23.198;2023-02-02T11:59:46;91807.63;;;5.68;53.33
37206;BME280;23099;42.636;23.198;2023-02-02T12:02:26;91803.78;;;5.54;54.70
37206;BME280;23099;42.636;23.198;2023-02-02T12:04:55;91804.56;;;5.54;56.56
37206;BME280;23099;42.636;23.198;2023-02-02T12:07:27;91800.47;;;5.57;53.75
37206;BME280;23099;42.636;23.198;2023-02-02T12:09:59;91806.56;;;5.45;54.11
37206;BME280;23099;42.636;23.198;2023-02-02T12:12:38;91807.09;;;5.39;55.13
37206;BME280;23099;42.636;23.198;2023-02-02T12:15:18;91807.97;;;5.55;54.14
37206;BME280;23099;42.636;23.198;2023-02-02T12:17:51;91815.59;;;5.56;54.55
37206;BME280;23099;42.636;23.198;2023-02-02T12:20:27;91814.59;;;5.61;54.00
37206;BME280;23099;42.636;23.198;2023-02-02T12:23:25;91804.84;;;5.65;52.08
37206;BME280;23099;42.636;23.198;2023-02-02T12:26:07;91802.66;;;5.67;50.35
37206;BME280;23099;42.636;23.198;2023-02-02T12:28:54;91804.84;;;5.77;49.52
37206;BME280;23099;42.636;23.198;2023-02-02T12:31:33;91813.56;;;5.78;49.61
37206;BME280;23099;42.636;23.198;2023-02-02T12:34:08;91818.88;;;5.78;47.45
37206;BME280;23099;42.636;23.198;2023-02-02T12:36:48;91820.75;;;6.01;46.27
37206;BME280;23099;42.636;23.198;2023-02-02T12:39:20;91820.28;;;5.99;45.68
37206;BME280;23099;42.636;23.198;2023-02-02T12:45:19;91820.41;;;6.03;46.69
37206;BME280;23099;42.636;23.198;2023-02-02T12:48:00;91815.88;;;6.03;46.55
37206;BME280;23099;42.636;23.198;2023-02-02T12:50:35;91807.13;;;6.03;47.14
37206;BME280;23099;42.636;23.198;2023-02-02T12:55:59;91816.25;;;5.90;46.80
37206;BME280;23099;42.636;23.198;2023-02-02T12:58:37;91815.56;;;5.81;46.76
37206;BME280;23099;42.636;23.198;2023-02-02T13:01:22;91814.00;;;5.80;46.07
37206;BME280;23099;42.636;23.198;2023-02-02T13:04:10;91836.75;;;5.81;46.50
37206;BME280;23099;42.636;23.198;2023-02-02T13:06:57;91814.56;;;5.85;47.15
37206;BME280;23099;42.636;23.198;2023-02-02T13:09:30;91813.34;;;5.83;46.74
37206;BME280;23099;42.636;23.198;2023-02-02T13:12:04;91811.72;;;5.90;49.17
37206;BME280;23099;42.636;23.198;2023-02-02T13:14:34;91827.59;;;6.02;49.21
37206;BME280;23099;42.636;23.198;2023-02-02T13:17:10;91819.75;;;6.34;47.71
37206;BME280;23099;42.636;23.198;2023-02-02T13:19:40;91826.69;;;6.38;47.60
37206;BME280;23099;42.636;23.198;2023-02-02T13:22:13;91810.09;;;6.14;48.57